createdAt,value
2018-08-09T00:30:50.189Z,24.64
2018-08-09T00:33:18.874Z,24.58
2018-08-09T00:35:47.488Z,24.29
2018-08-09T00:38:16.043Z,24.26
2018-08-09T00:40:44.602Z,24.08
2018-08-09T00:43:13.679Z,24.34
2018-08-09T00:45:42.054Z,24.29
2018-08-09T00:48:10.680Z,24.23
2018-08-09T00:50:39.994Z,24.06
2018-08-09T00:53:08.146Z,24.14
2018-08-09T00:55:36.268Z,24.10
2018-08-09T00:58:05.113Z,24.09
2018-08-09T01:00:33.696Z,24.06
2018-08-09T01:03:02.171Z,24.05
2018-08-09T01:05:30.483Z,24.03
2018-08-09T01:07:58.844Z,24.04
2018-08-09T01:10:27.930Z,24.05
2018-08-09T01:12:56.631Z,24.04
2018-08-09T01:15:25.404Z,24.03
2018-08-09T01:17:53.525Z,24.02
2018-08-09T01:20:21.667Z,23.98
2018-08-09T01:22:50.360Z,23.97
2018-08-09T01:25:18.531Z,23.96
2018-08-09T01:27:47.100Z,23.95
2018-08-09T01:30:16.199Z,23.91
2018-08-09T01:32:44.565Z,23.88
2018-08-09T01:35:13.342Z,23.85
2018-08-09T01:37:42.139Z,23.82
2018-08-09T01:40:10.702Z,23.79
2018-08-09T01:42:50.065Z,23.63
2018-08-09T01:45:18.331Z,23.60
2018-08-09T01:47:46.489Z,23.49
2018-08-09T01:50:15.290Z,23.64
2018-08-09T01:52:43.976Z,23.61
2018-08-09T01:55:12.498Z,23.60
2018-08-09T01:57:40.967Z,23.57
2018-08-09T02:00:09.756Z,23.52
2018-08-09T02:02:39.307Z,23.44
2018-08-09T02:05:08.513Z,23.03
2018-08-09T02:07:36.838Z,23.29
2018-08-09T02:10:05.912Z,23.24
2018-08-09T02:12:34.080Z,23.14
2018-08-09T02:15:02.770Z,23.09
2018-08-09T02:17:31.486Z,22.73
2018-08-09T02:20:00.327Z,22.97
2018-08-09T02:22:29.262Z,22.92
2018-08-09T02:24:57.522Z,22.87
2018-08-09T02:27:25.902Z,22.49
2018-08-09T02:29:54.737Z,22.77
2018-08-09T02:32:23.340Z,22.73
2018-08-09T02:34:51.744Z,22.69
2018-08-09T02:37:20.154Z,22.63
2018-08-09T02:39:48.671Z,22.59
2018-08-09T02:42:17.498Z,22.47
2018-08-09T02:44:45.766Z,22.58
2018-08-09T02:47:14.192Z,22.53
2018-08-09T02:49:43.134Z,22.49
2018-08-09T02:52:11.832Z,22.35
2018-08-09T02:54:40.212Z,22.42
2018-08-09T02:57:08.593Z,22.39
2018-08-09T02:59:36.961Z,22.25
2018-08-09T03:02:06.114Z,22.36
2018-08-09T03:04:34.623Z,22.21
2018-08-09T03:07:03.839Z,22.31
2018-08-09T03:09:33.274Z,22.29
2018-08-09T03:12:01.534Z,22.26
2018-08-09T03:14:29.985Z,22.24
2018-08-09T03:16:58.295Z,22.22
2018-08-09T03:19:26.570Z,22.12
2018-08-09T03:21:55.455Z,22.22
2018-08-09T03:24:24.279Z,22.19
2018-08-09T03:26:52.708Z,22.18
2018-08-09T03:29:21.170Z,22.18
2018-08-09T03:31:49.880Z,22.14
2018-08-09T03:34:18.446Z,22.13
2018-08-09T03:36:46.751Z,22.07
2018-08-09T03:39:15.886Z,21.94
2018-08-09T03:41:44.508Z,22.03
2018-08-09T03:44:12.898Z,21.76
2018-08-09T03:46:41.739Z,21.99
2018-08-09T03:49:10.148Z,21.94
2018-08-09T03:51:39.097Z,21.91
2018-08-09T03:54:07.436Z,21.41
2018-08-09T03:56:35.931Z,21.81
2018-08-09T03:59:04.566Z,21.77
2018-08-09T04:01:32.756Z,21.75
2018-08-09T04:04:01.033Z,21.72
2018-08-09T04:06:29.843Z,21.70
2018-08-09T04:08:58.313Z,21.73
2018-08-09T04:11:26.806Z,21.73
2018-08-09T04:13:54.988Z,21.74
2018-08-09T04:16:23.149Z,21.75
2018-08-09T04:18:52.126Z,21.74
2018-08-09T04:21:20.260Z,21.77
2018-08-09T04:23:48.409Z,21.79
2018-08-09T04:26:16.577Z,21.81
2018-08-09T04:28:45.247Z,21.81
2018-08-09T04:31:14.051Z,21.84
2018-08-09T04:33:42.719Z,21.84
2018-08-09T04:36:11.015Z,21.84
2018-08-09T04:38:39.901Z,21.87
2018-08-09T04:41:08.362Z,21.89
2018-08-09T04:43:37.042Z,21.91
2018-08-09T04:46:06.470Z,21.93
2018-08-09T04:48:34.833Z,21.96
2018-08-09T04:51:03.453Z,21.97
2018-08-09T04:53:32.000Z,22.03
2018-08-09T04:56:00.392Z,22.11
2018-08-09T04:58:29.307Z,22.17
2018-08-09T05:00:57.606Z,22.24
2018-08-09T05:03:26.210Z,22.24
2018-08-09T05:05:54.330Z,22.25
2018-08-09T05:08:22.426Z,22.32
2018-08-09T05:10:51.172Z,22.38
2018-08-09T05:13:19.446Z,22.43
2018-08-09T05:15:47.826Z,22.44
2018-08-09T05:18:15.992Z,22.51
2018-08-09T05:20:44.099Z,22.56
2018-08-09T05:23:12.760Z,22.58
2018-08-09T05:25:41.170Z,22.62
2018-08-09T05:28:09.699Z,22.66
2018-08-09T05:30:38.522Z,22.71
2018-08-09T05:33:07.145Z,22.53
2018-08-09T05:35:35.517Z,22.43
2018-08-09T05:38:04.129Z,22.71
2018-08-09T05:40:32.294Z,22.61
2018-08-09T05:43:00.731Z,22.95
2018-08-09T05:45:29.377Z,22.99
2018-08-09T05:47:57.607Z,23.07
2018-08-09T05:50:25.967Z,23.09
2018-08-09T05:52:54.854Z,23.15
2018-08-09T05:55:23.410Z,23.21
2018-08-09T05:57:51.573Z,23.29
2018-08-09T06:00:20.617Z,23.38
2018-08-09T06:02:49.347Z,23.11
2018-08-09T06:05:17.618Z,23.39
2018-08-09T06:07:46.403Z,23.60
2018-08-09T06:10:16.736Z,23.68
2018-08-09T06:13:02.893Z,23.74
2018-08-09T06:15:33.083Z,23.82
2018-08-09T06:18:03.368Z,23.85
2018-08-09T06:20:32.985Z,23.89
2018-08-09T06:23:03.630Z,23.99
2018-08-09T06:25:32.422Z,24.10
2018-08-09T06:28:00.619Z,24.18
2018-08-09T06:30:29.035Z,24.28
2018-08-09T06:32:57.357Z,24.31
2018-08-09T06:35:27.293Z,24.44
2018-08-09T06:37:55.617Z,24.50
2018-08-09T06:40:24.149Z,24.57
2018-08-09T06:42:52.475Z,24.59
2018-08-09T06:45:21.596Z,24.63
2018-08-09T06:47:51.427Z,24.71
2018-08-09T06:50:21.169Z,24.85
2018-08-09T06:52:52.025Z,24.96
2018-08-09T06:55:21.649Z,24.87
2018-08-09T06:57:53.111Z,25.02
2018-08-09T07:00:21.842Z,25.07
2018-08-09T07:02:50.896Z,25.12
2018-08-09T07:05:21.452Z,25.21
2018-08-09T07:07:51.037Z,25.46
2018-08-09T07:10:19.514Z,25.69
2018-08-09T07:12:47.761Z,26.04
2018-08-09T07:15:17.734Z,26.26
2018-08-09T07:17:45.959Z,26.57
2018-08-09T07:20:15.040Z,26.82
2018-08-09T07:22:43.764Z,26.96
2018-08-09T07:25:13.560Z,27.01
2018-08-09T07:27:42.015Z,26.97
2018-08-09T07:30:12.341Z,27.03
2018-08-09T07:32:40.900Z,27.06
2018-08-09T07:37:44.382Z,27.33
2018-08-09T07:40:14.542Z,27.50
2018-08-09T07:42:43.381Z,27.62
2018-08-09T07:45:13.230Z,27.75
2018-08-09T07:47:42.108Z,27.99
2018-08-09T07:50:11.151Z,28.32
2018-08-09T07:52:40.064Z,28.54
2018-08-09T07:55:09.743Z,28.86
2018-08-09T07:57:38.497Z,29.18
2018-08-09T08:00:09.713Z,29.55
2018-08-09T08:02:38.172Z,29.80
2018-08-09T08:05:07.170Z,30.09
2018-08-09T08:07:36.193Z,30.44
2018-08-09T08:10:06.786Z,30.33
2018-08-09T08:12:35.801Z,30.23
2018-08-09T08:15:09.929Z,30.49
2018-08-09T08:17:38.304Z,30.56
2018-08-09T08:20:07.450Z,30.63
2018-08-09T08:22:36.566Z,30.74
2018-08-09T08:25:06.138Z,30.86
2018-08-09T08:27:35.234Z,31.02
2018-08-09T08:30:06.984Z,31.21
2018-08-09T08:32:35.651Z,31.29
2018-08-09T08:35:05.566Z,31.40
2018-08-09T08:37:33.884Z,31.50
2018-08-09T08:40:02.860Z,31.66
2018-08-09T08:42:31.067Z,31.69
2018-08-09T08:44:59.347Z,31.34
2018-08-09T08:47:27.927Z,31.87
2018-08-09T08:49:56.120Z,32.02
2018-08-09T08:52:27.559Z,32.19
2018-08-09T08:56:20.095Z,32.21
2018-08-09T08:58:48.255Z,32.21
2018-08-09T09:01:21.510Z,32.31
2018-08-09T09:03:52.870Z,32.48
2018-08-09T09:06:21.694Z,32.58
2018-08-09T09:08:50.240Z,32.63
2018-08-09T09:11:19.134Z,32.81
2018-08-09T09:13:47.380Z,33.06
2018-08-09T09:16:16.266Z,33.29
2018-08-09T09:18:44.434Z,33.11
2018-08-09T09:21:13.054Z,33.33
2018-08-09T09:23:41.218Z,33.49
2018-08-09T09:26:09.679Z,33.53
2018-08-09T09:28:38.197Z,33.61
2018-08-09T09:31:07.184Z,33.70
2018-08-09T09:33:36.259Z,33.83
2018-08-09T09:36:05.323Z,34.00
2018-08-09T09:38:33.571Z,34.00
2018-08-09T09:41:03.555Z,34.14
2018-08-09T09:44:56.210Z,34.29
2018-08-09T09:47:24.735Z,34.35
2018-08-09T09:49:53.380Z,34.50
2018-08-09T09:52:22.082Z,34.68
2018-08-09T09:54:50.653Z,34.90
2018-08-09T09:57:19.824Z,35.09
2018-08-09T09:59:48.221Z,35.29
2018-08-09T10:02:16.476Z,35.31
2018-08-09T10:04:45.495Z,35.32
2018-08-09T10:07:14.237Z,35.63
2018-08-09T10:09:42.724Z,35.76
2018-08-09T10:12:11.488Z,36.31
2018-08-09T10:14:39.853Z,36.49
2018-08-09T10:17:10.209Z,36.47
2018-08-09T10:19:39.015Z,36.16
2018-08-09T10:22:08.139Z,35.83
2018-08-09T10:24:37.048Z,35.93
2018-08-09T10:27:05.519Z,36.09
2018-08-09T10:29:33.762Z,36.54
2018-08-09T10:32:02.862Z,36.98
2018-08-09T10:34:31.111Z,37.14
2018-08-09T10:36:59.330Z,37.37
2018-08-09T10:39:27.783Z,37.48
2018-08-09T10:41:56.156Z,37.39
2018-08-09T10:44:24.651Z,37.29
2018-08-09T10:46:52.891Z,37.27
2018-08-09T10:49:21.162Z,37.38
2018-08-09T10:51:49.427Z,37.59
2018-08-09T10:54:17.989Z,37.60
2018-08-09T10:56:47.170Z,37.72
2018-08-09T10:59:16.393Z,37.99
2018-08-09T11:01:45.739Z,38.16
2018-08-09T11:04:15.497Z,38.38
2018-08-09T11:06:43.769Z,38.60
2018-08-09T11:09:12.734Z,39.01
2018-08-09T11:11:42.700Z,39.25
2018-08-09T11:14:11.115Z,39.52
2018-08-09T11:16:41.769Z,39.76
2018-08-09T11:19:12.021Z,39.61
2018-08-09T11:21:46.655Z,39.57
2018-08-09T11:24:15.472Z,39.60
2018-08-09T11:26:49.454Z,39.79
2018-08-09T11:29:19.621Z,39.85
2018-08-09T11:31:51.084Z,39.70
2018-08-09T11:34:20.034Z,40.11
2018-08-09T11:36:50.465Z,40.42
2018-08-09T11:39:19.373Z,40.53
2018-08-09T11:41:48.759Z,40.68
2018-08-09T11:44:24.336Z,40.76
2018-08-09T11:46:55.073Z,40.78
2018-08-09T11:49:26.983Z,41.01
2018-08-09T11:51:55.618Z,40.93
2018-08-09T11:54:25.666Z,40.60
2018-08-09T11:56:55.564Z,39.96
2018-08-09T11:59:24.529Z,39.16
2018-08-09T12:01:53.492Z,38.52
2018-08-09T12:04:22.048Z,38.05
2018-08-09T12:06:53.340Z,37.80
2018-08-09T12:09:24.017Z,37.63
2018-08-09T12:11:55.453Z,37.47
2018-08-09T12:14:23.779Z,37.66
2018-08-09T12:16:52.932Z,37.92
2018-08-09T12:19:21.580Z,37.85
2018-08-09T12:21:49.830Z,38.38
2018-08-09T12:24:18.040Z,38.19
2018-08-09T12:26:46.588Z,38.00
2018-08-09T12:29:15.691Z,37.96
2018-08-09T12:31:43.904Z,37.98
2018-08-09T12:34:13.040Z,37.65
2018-08-09T12:36:41.572Z,38.04
2018-08-09T12:39:11.665Z,38.58
2018-08-09T12:41:40.086Z,38.48
2018-08-09T12:44:08.888Z,38.71
2018-08-09T12:46:39.026Z,38.37
2018-08-09T12:49:07.623Z,38.46
2018-08-09T12:51:36.115Z,38.25
2018-08-09T12:54:04.497Z,38.42
2018-08-09T12:56:33.835Z,38.45
2018-08-09T12:59:02.663Z,38.08
2018-08-09T13:01:31.299Z,37.91
2018-08-09T13:04:00.916Z,37.73
2018-08-09T13:06:31.265Z,37.49
2018-08-09T13:09:02.893Z,37.27
2018-08-09T13:11:31.526Z,37.13
2018-08-09T13:14:01.411Z,37.02
2018-08-09T13:16:33.753Z,36.96
2018-08-09T13:19:03.329Z,37.08
2018-08-09T13:21:35.944Z,36.40
2018-08-09T13:24:11.272Z,37.89
2018-08-09T13:26:45.025Z,38.38
2018-08-09T13:29:15.925Z,38.38
2018-08-09T13:31:47.831Z,38.36
2018-08-09T13:34:19.830Z,38.28
2018-08-09T13:36:49.835Z,38.03
2018-08-09T13:39:21.230Z,37.86
2018-08-09T13:41:54.553Z,37.69
2018-08-09T13:44:24.799Z,37.47
2018-08-09T13:46:53.738Z,37.45
2018-08-09T13:49:23.220Z,37.29
2018-08-09T13:51:52.530Z,37.15
2018-08-09T13:54:29.095Z,37.06
2018-08-09T13:56:59.624Z,36.00
2018-08-09T13:59:34.590Z,36.91
2018-08-09T14:02:12.430Z,37.11
2018-08-09T14:04:53.069Z,37.34
2018-08-09T14:07:24.620Z,37.45
2018-08-09T14:09:54.304Z,37.43
2018-08-09T14:12:24.394Z,37.28
2018-08-09T14:14:53.239Z,36.80
2018-08-09T14:17:22.907Z,37.31
2018-08-09T14:19:52.193Z,37.46
2018-08-09T14:22:21.229Z,37.66
2018-08-09T14:24:49.800Z,38.27
2018-08-09T14:27:18.063Z,38.02
2018-08-09T14:29:46.796Z,38.24
2018-08-09T14:32:17.528Z,38.32
2018-08-09T14:34:46.598Z,38.54
2018-08-09T14:37:16.123Z,38.50
2018-08-09T14:39:44.673Z,38.27
2018-08-09T14:42:13.077Z,38.22
2018-08-09T14:44:42.006Z,38.30
2018-08-09T14:47:10.329Z,38.59
2018-08-09T14:49:38.996Z,38.85
2018-08-09T14:52:07.500Z,38.92
2018-08-09T14:54:35.722Z,38.73
2018-08-09T14:57:04.251Z,38.53
2018-08-09T14:59:32.651Z,38.01
2018-08-09T15:02:01.363Z,38.16
2018-08-09T15:04:29.647Z,37.82
2018-08-09T15:06:58.344Z,37.47
2018-08-09T15:09:27.002Z,37.34
2018-08-09T15:11:55.156Z,37.11
2018-08-09T15:14:24.373Z,37.00
2018-08-09T15:16:52.695Z,37.07
2018-08-09T15:19:22.898Z,37.16
2018-08-09T15:21:51.876Z,37.23
2018-08-09T15:24:20.616Z,36.99
2018-08-09T15:26:48.810Z,37.24
2018-08-09T15:29:17.452Z,37.35
2018-08-09T15:31:45.797Z,37.39
2018-08-09T15:34:14.515Z,37.45
2018-08-09T15:36:43.428Z,37.40
2018-08-09T15:39:13.316Z,37.36
2018-08-09T15:41:42.746Z,37.24
2018-08-09T15:44:11.991Z,37.03
2018-08-09T15:46:40.283Z,36.89
2018-08-09T15:49:08.959Z,36.80
2018-08-09T15:51:37.519Z,36.73
2018-08-09T15:54:06.390Z,36.67
2018-08-09T15:56:35.130Z,36.49
2018-08-09T15:59:04.475Z,36.24
2018-08-09T16:01:35.332Z,36.06
2018-08-09T16:04:03.970Z,35.86
2018-08-09T16:06:32.326Z,35.61
2018-08-09T16:09:00.707Z,35.54
2018-08-09T16:11:29.026Z,35.43
2018-08-09T16:13:59.731Z,35.34
2018-08-09T16:16:28.049Z,35.33
2018-08-09T16:18:56.297Z,35.22
2018-08-09T16:21:25.082Z,34.62
2018-08-09T16:23:53.431Z,34.16
2018-08-09T16:26:21.683Z,33.53
2018-08-09T16:28:49.871Z,33.11
2018-08-09T16:31:18.202Z,32.73
2018-08-09T16:33:46.951Z,32.38
2018-08-09T16:36:15.508Z,32.27
2018-08-09T16:38:43.783Z,32.17
2018-08-09T16:41:12.077Z,32.02
2018-08-09T16:43:40.358Z,31.62
2018-08-09T16:46:09.624Z,31.64
2018-08-09T16:48:37.825Z,31.43
2018-08-09T16:51:06.260Z,31.36
2018-08-09T16:53:35.143Z,31.37
2018-08-09T16:56:03.622Z,31.39
2018-08-09T16:58:32.307Z,31.47
2018-08-09T17:01:00.630Z,31.55
2018-08-09T17:03:45.642Z,31.53
2018-08-09T17:06:14.416Z,31.41
2018-08-09T17:08:42.650Z,31.34
2018-08-09T17:11:10.958Z,31.25
2018-08-09T17:13:39.370Z,30.99
2018-08-09T17:16:07.643Z,30.50
2018-08-09T17:18:36.379Z,30.43
2018-08-09T17:21:04.809Z,30.37
2018-08-09T17:23:33.472Z,30.34
2018-08-09T17:26:02.130Z,30.27
2018-08-09T17:28:31.133Z,30.07
2018-08-09T17:30:59.359Z,30.05
2018-08-09T17:33:27.512Z,29.80
2018-08-09T17:35:56.204Z,29.79
2018-08-09T17:38:24.745Z,29.65
2018-08-09T17:40:54.766Z,29.50
2018-08-09T17:43:23.335Z,29.41
2018-08-09T17:45:53.447Z,29.31
2018-08-09T17:48:21.852Z,29.25
2018-08-09T17:50:50.334Z,29.10
2018-08-09T17:53:18.588Z,29.05
2018-08-09T17:55:46.883Z,29.02
2018-08-09T17:58:16.091Z,28.65
2018-08-09T18:00:44.339Z,28.87
2018-08-09T18:03:13.431Z,28.81
2018-08-09T18:05:41.951Z,28.76
2018-08-09T18:08:10.204Z,28.69
2018-08-09T18:10:39.269Z,28.36
2018-08-09T18:13:07.682Z,28.59
2018-08-09T18:15:35.888Z,28.53
2018-08-09T18:18:04.807Z,28.28
2018-08-09T18:20:34.624Z,28.31
2018-08-09T18:23:03.145Z,28.30
2018-08-09T18:25:32.679Z,28.23
2018-08-09T18:28:01.031Z,28.08
2018-08-09T18:30:29.606Z,28.02
2018-08-09T18:32:58.174Z,27.70
2018-08-09T18:35:27.509Z,27.98
2018-08-09T18:37:55.697Z,27.94
2018-08-09T18:40:25.519Z,27.88
2018-08-09T18:42:59.962Z,27.82
2018-08-09T18:45:28.802Z,27.76
2018-08-09T18:47:57.122Z,27.71
2018-08-09T18:50:28.961Z,27.65
2018-08-09T18:53:00.111Z,27.62
2018-08-09T18:55:28.733Z,27.60
2018-08-09T18:57:56.971Z,27.56
2018-08-09T19:00:27.301Z,27.51
2018-08-09T19:02:56.436Z,27.48
2018-08-09T19:05:25.800Z,27.43
2018-08-09T19:07:54.363Z,27.30
2018-08-09T19:10:24.485Z,27.38
2018-08-09T19:12:52.781Z,27.34
2018-08-09T19:15:21.414Z,27.29
2018-08-09T19:17:50.228Z,27.23
2018-08-09T19:20:21.173Z,27.22
2018-08-09T19:22:50.287Z,27.17
2018-08-09T19:25:19.263Z,27.12
2018-08-09T19:27:47.496Z,27.08
2018-08-09T19:30:20.237Z,27.01
2018-08-09T19:32:48.518Z,26.96
2018-08-09T19:35:18.145Z,26.92
2018-08-09T19:37:46.596Z,26.88
2018-08-09T19:40:17.448Z,26.63
2018-08-09T19:42:46.226Z,26.78
2018-08-09T19:45:16.895Z,26.73
2018-08-09T19:47:45.675Z,26.67
2018-08-09T19:50:16.343Z,26.62
2018-08-09T19:52:44.723Z,26.56
2018-08-09T19:55:14.896Z,26.49
2018-08-09T19:57:44.591Z,26.44
2018-08-09T20:00:31.017Z,25.85
2018-08-09T20:03:00.039Z,26.31
2018-08-09T20:05:28.677Z,26.27
2018-08-09T20:07:58.737Z,26.12
2018-08-09T20:10:27.646Z,25.95
2018-08-09T20:12:56.088Z,26.10
2018-08-09T20:15:26.009Z,26.06
2018-08-09T20:17:54.477Z,26.01
2018-08-09T20:20:24.247Z,25.98
2018-08-09T20:22:53.263Z,25.94
2018-08-09T20:25:21.709Z,25.81
2018-08-09T20:27:50.138Z,25.90
2018-08-09T20:30:19.161Z,25.86
2018-08-09T20:32:47.954Z,25.83
2018-08-09T20:35:17.720Z,25.79
2018-08-09T20:37:46.574Z,25.74
2018-08-09T20:40:15.835Z,25.70
2018-08-09T20:42:45.103Z,25.66
2018-08-09T20:45:14.991Z,25.63
2018-08-09T20:47:47.236Z,25.50
2018-08-09T20:50:17.848Z,25.56
2018-08-09T20:52:47.045Z,25.54
2018-08-09T20:55:15.797Z,25.39
2018-08-09T20:57:44.835Z,25.46
2018-08-09T21:00:15.576Z,25.41
2018-08-09T21:02:45.354Z,25.27
2018-08-09T21:05:20.034Z,25.35
2018-08-09T21:07:51.579Z,25.36
2018-08-09T21:10:22.601Z,25.35
2018-08-09T21:12:51.039Z,25.34
2018-08-09T21:15:20.279Z,25.24
2018-08-09T21:17:48.601Z,25.23
2018-08-09T21:20:17.002Z,25.22
2018-08-09T21:22:48.240Z,25.30
2018-08-09T21:25:16.727Z,25.29
2018-08-09T21:27:45.470Z,25.05
2018-08-09T21:30:21.948Z,25.11
2018-08-09T21:32:50.664Z,25.19
2018-08-09T21:35:19.167Z,25.05
2018-08-09T21:37:47.489Z,25.15
2018-08-09T21:40:15.986Z,25.11
2018-08-09T21:42:44.920Z,25.09
2018-08-09T21:45:19.116Z,24.97
2018-08-09T21:47:47.435Z,24.93
2018-08-09T21:50:17.578Z,25.00
2018-08-09T21:52:45.915Z,24.87
2018-08-09T21:55:15.075Z,24.85
2018-08-09T21:57:44.115Z,24.93
2018-08-09T22:00:37.632Z,24.91
2018-08-09T22:03:06.345Z,24.70
2018-08-09T22:05:40.297Z,24.78
2018-08-09T22:08:14.364Z,24.74
2018-08-09T22:12:54.098Z,24.83
2018-08-09T22:15:27.946Z,24.79
2018-08-09T22:18:01.508Z,24.77
2018-08-09T22:20:36.495Z,24.66
2018-08-09T22:23:04.907Z,24.72
2018-08-09T22:25:33.191Z,24.69
2018-08-09T22:28:01.762Z,24.66
2018-08-09T22:30:30.061Z,24.61
2018-08-09T22:32:58.239Z,24.57
2018-08-09T22:35:26.678Z,24.43
2018-08-09T22:37:54.819Z,24.48
2018-08-09T22:40:22.948Z,24.44
2018-08-09T22:42:51.444Z,24.14
2018-08-09T22:45:20.109Z,24.37
2018-08-09T22:47:48.578Z,24.34
2018-08-09T22:50:17.294Z,24.33
2018-08-09T22:52:46.175Z,24.29
2018-08-09T22:55:15.261Z,24.27
2018-08-09T22:57:43.758Z,24.22
2018-08-09T23:00:21.191Z,24.21
2018-08-09T23:02:49.479Z,24.17
2018-08-09T23:05:18.581Z,24.12
2018-08-09T23:07:47.448Z,23.99
2018-08-09T23:10:15.798Z,24.06
2018-08-09T23:12:44.284Z,24.03
2018-08-09T23:15:12.841Z,23.99
2018-08-09T23:17:41.077Z,23.96
2018-08-09T23:20:09.643Z,23.94
2018-08-09T23:22:37.806Z,23.90
2018-08-09T23:25:09.310Z,23.87
2018-08-09T23:27:37.783Z,23.85
2018-08-09T23:30:07.861Z,23.83
2018-08-09T23:32:36.719Z,23.77
2018-08-09T23:35:07.044Z,23.77
2018-08-09T23:37:35.648Z,23.72
2018-08-09T23:40:05.469Z,23.71
2018-08-09T23:42:35.264Z,23.67
2018-08-09T23:45:04.054Z,23.65
2018-08-09T23:47:32.515Z,23.62
2018-08-09T23:52:27.814Z,23.53
2018-08-09T23:54:56.306Z,23.53
2018-08-09T23:57:24.859Z,23.50
2018-08-09T23:59:53.397Z,23.49
